Time;durP1;ratioP1;P1;durP2;ratioP2;P2;SDS_P1;SDS_P2;PMS_P1;PMS_P2;Temp;Humidity;BMP_temperature;BMP_pressure;BME280_temperature;BME280_humidity;BME280_pressure;Samples;Min_cycle;Max_cycle;Signal;HPM_P1;HPM_P2
2021/10/09 00:00:09;;;;;;;8.53;7.83;;;13.50;72.10;;;;;;5054493;28;20445;-76
2021/10/09 00:02:37;;;;;;;10.23;8.20;;;13.50;72.00;;;;;;5053793;28;20993;-76
2021/10/09 00:05:04;;;;;;;10.50;9.40;;;13.40;72.00;;;;;;5054344;28;20445;-77
2021/10/09 00:07:30;;;;;;;10.37;9.30;;;13.40;72.10;;;;;;5054084;28;20449;-76
2021/10/09 00:10:01;;;;;;;11.00;9.90;;;13.40;72.50;;;;;;5054128;28;20449;-76
2021/10/09 00:12:28;;;;;;;10.90;10.00;;;13.40;72.80;;;;;;5054110;28;20822;-77
2021/10/09 00:14:56;;;;;;;8.73;7.90;;;13.30;72.80;;;;;;5054207;28;20446;-77
2021/10/09 00:17:24;;;;;;;8.60;7.70;;;13.30;72.00;;;;;;5054034;28;20441;-77
2021/10/09 00:19:51;;;;;;;8.70;7.87;;;13.20;71.70;;;;;;5054149;28;20544;-76
2021/10/09 00:22:18;;;;;;;7.90;7.23;;;13.10;71.50;;;;;;5053766;28;20547;-76
2021/10/09 00:24:45;;;;;;;8.50;7.70;;;13.00;72.00;;;;;;5054067;28;20453;-76
2021/10/09 00:27:13;;;;;;;9.70;8.70;;;13.00;71.60;;;;;;5053649;28;20791;-76
2021/10/09 00:29:40;;;;;;;8.80;7.73;;;13.00;71.40;;;;;;5053648;28;20446;-76
2021/10/09 00:32:07;;;;;;;8.40;7.60;;;12.90;71.10;;;;;;5053661;28;20830;-76
2021/10/09 00:34:34;;;;;;;9.07;8.17;;;12.90;70.90;;;;;;5053945;28;20479;-76
2021/10/09 00:37:00;;;;;;;10.27;9.27;;;12.80;71.10;;;;;;5053812;28;20445;-76
2021/10/09 00:39:27;;;;;;;10.23;8.83;;;12.90;71.90;;;;;;5053939;28;20812;-77
2021/10/09 00:41:54;;;;;;;10.03;8.70;;;12.80;71.00;;;;;;5053882;28;20496;-76
2021/10/09 00:44:22;;;;;;;9.20;8.40;;;12.80;71.40;;;;;;5054037;28;20445;-76
2021/10/09 00:46:49;;;;;;;9.87;8.87;;;12.80;71.40;;;;;;5053748;28;20453;-76
2021/10/09 00:49:16;;;;;;;9.97;8.93;;;12.80;71.50;;;;;;5053670;28;20449;-76
2021/10/09 00:51:43;;;;;;;12.73;9.87;;;12.70;71.30;;;;;;5053436;28;20457;-76
2021/10/09 00:54:11;;;;;;;10.03;8.87;;;12.70;71.60;;;;;;5053132;28;20519;-76
2021/10/09 00:56:40;;;;;;;11.27;10.17;;;12.70;71.80;;;;;;5053755;28;20445;-76
2021/10/09 00:59:09;;;;;;;10.90;9.90;;;12.60;72.00;;;;;;5053664;28;20507;-77
2021/10/09 01:01:37;;;;;;;10.90;9.80;;;12.60;72.00;;;;;;5053527;28;20486;-76
2021/10/09 01:04:05;;;;;;;10.63;9.63;;;12.60;72.20;;;;;;5053574;28;20460;-77
2021/10/09 01:06:33;;;;;;;10.60;9.60;;;12.60;72.30;;;;;;5053546;28;20859;-76
2021/10/09 01:09:00;;;;;;;10.40;9.40;;;12.60;72.30;;;;;;5053629;28;20468;-76
2021/10/09 01:11:26;;;;;;;9.30;8.40;;;12.60;72.30;;;;;;5053528;28;20442;-76
2021/10/09 01:13:53;;;;;;;11.40;10.20;;;12.60;72.50;;;;;;5054081;28;20469;-77
2021/10/09 01:16:21;;;;;;;10.00;9.00;;;12.50;72.00;;;;;;5053462;28;20454;-77
2021/10/09 01:18:51;;;;;;;9.90;8.90;;;12.50;71.70;;;;;;5053465;28;20450;-77
2021/10/09 01:21:19;;;;;;;8.87;8.07;;;12.50;71.50;;;;;;5053454;28;20468;-77
2021/10/09 01:23:47;;;;;;;7.70;6.90;;;12.40;71.60;;;;;;5053038;28;20484;-77
2021/10/09 01:26:13;;;;;;;7.20;6.50;;;12.40;71.40;;;;;;5053473;28;20449;-76
2021/10/09 01:28:42;;;;;;;7.27;6.10;;;12.30;71.60;;;;;;5053205;28;20450;-77
2021/10/09 01:31:09;;;;;;;7.10;6.50;;;12.30;71.30;;;;;;5053514;28;20445;-76
2021/10/09 01:33:36;;;;;;;7.30;6.70;;;12.20;71.20;;;;;;5053425;28;20842;-76
2021/10/09 01:36:04;;;;;;;10.63;9.53;;;12.20;71.20;;;;;;5053415;28;20468;-77
2021/10/09 01:38:32;;;;;;;10.10;9.17;;;12.10;70.90;;;;;;5053294;28;20445;-77
2021/10/09 01:40:59;;;;;;;9.43;8.53;;;12.10;71.20;;;;;;5053272;28;20445;-76
2021/10/09 01:43:26;;;;;;;10.80;9.70;;;12.00;71.50;;;;;;5053240;28;20461;-77
2021/10/09 01:45:53;;;;;;;9.77;8.87;;;12.00;71.50;;;;;;5053223;28;20449;-76
2021/10/09 01:48:30;;;;;;;9.90;9.00;;;12.00;71.40;;;;;;5053224;28;20442;-76
2021/10/09 01:50:56;;;;;;;9.33;8.43;;;12.00;71.50;;;;;;5053223;28;20429;-76
2021/10/09 01:53:24;;;;;;;8.90;8.00;;;12.00;71.60;;;;;;5053177;28;20469;-76
2021/10/09 01:55:52;;;;;;;9.70;8.70;;;12.00;71.70;;;;;;5052967;28;20442;-76
2021/10/09 01:58:19;;;;;;;9.80;8.80;;;11.90;71.60;;;;;;5052916;28;20449;-77
2021/10/09 02:00:45;;;;;;;9.50;8.60;;;11.90;71.60;;;;;;5052868;28;20951;-76
2021/10/09 02:03:15;;;;;;;9.27;8.37;;;11.90;71.60;;;;;;5053009;28;20489;-76
2021/10/09 02:05:41;;;;;;;7.83;7.07;;;11.90;71.80;;;;;;5056452;28;20445;-76
2021/10/09 02:08:08;;;;;;;9.73;8.73;;;11.80;71.40;;;;;;5056472;28;20448;-76
2021/10/09 02:10:43;;;;;;;8.53;7.73;;;11.80;71.60;;;;;;5056678;28;20781;-77
2021/10/09 02:13:13;;;;;;;8.90;8.07;;;11.80;71.50;;;;;;5056590;28;20548;-75
2021/10/09 02:15:43;;;;;;;9.97;9.03;;;11.80;71.50;;;;;;5056147;28;20438;-75
2021/10/09 02:18:31;;;;;;;9.83;8.83;;;11.70;71.90;;;;;;5056227;28;20434;-76
2021/10/09 02:26:27;;;;;;;8.07;7.37;;;11.60;71.50;;;;;;5056556;28;20484;-77
2021/10/09 02:28:55;;;;;;;6.83;6.23;;;11.60;71.60;;;;;;5056302;28;20449;-77
2021/10/09 02:31:22;;;;;;;7.90;6.07;;;11.60;71.30;;;;;;5056007;28;20445;-74
2021/10/09 02:33:48;;;;;;;6.53;5.93;;;11.60;71.50;;;;;;5056105;28;20472;-76
2021/10/09 02:36:15;;;;;;;8.37;6.27;;;11.50;71.30;;;;;;5056361;28;20446;-77
2021/10/09 02:38:43;;;;;;;6.50;5.90;;;11.50;71.20;;;;;;5056304;28;20449;-76
2021/10/09 02:41:09;;;;;;;5.77;5.37;;;11.50;71.00;;;;;;5055645;28;20449;-76
2021/10/09 02:43:36;;;;;;;5.90;5.40;;;11.40;70.80;;;;;;5055917;28;20469;-76
2021/10/09 02:46:04;;;;;;;5.93;5.53;;;11.40;71.20;;;;;;5056009;28;20571;-77
2021/10/09 02:48:31;;;;;;;5.23;4.80;;;11.40;71.40;;;;;;5055503;28;20939;-76
2021/10/09 02:50:58;;;;;;;5.57;5.17;;;11.30;71.40;;;;;;5055968;28;20448;-76
2021/10/09 02:53:24;;;;;;;6.97;6.27;;;11.30;71.40;;;;;;5055749;28;20461;-76
2021/10/09 02:55:51;;;;;;;7.00;6.50;;;11.20;71.40;;;;;;5055807;28;20450;-77
2021/10/09 02:58:18;;;;;;;7.73;7.03;;;11.20;71.80;;;;;;5055761;28;20445;-76
2021/10/09 03:00:45;;;;;;;6.40;5.83;;;11.20;71.90;;;;;;5055799;28;20480;-76
2021/10/09 03:03:13;;;;;;;6.73;6.20;;;11.20;71.80;;;;;;5055538;28;20489;-77
2021/10/09 03:05:39;;;;;;;6.03;5.63;;;11.10;71.70;;;;;;5055336;28;20930;-77
2021/10/09 03:08:06;;;;;;;6.50;6.00;;;11.10;72.00;;;;;;5055603;28;20445;-76
2021/10/09 03:10:33;;;;;;;6.80;6.30;;;11.10;72.10;;;;;;5055405;28;20445;-76
2021/10/09 03:13:00;;;;;;;7.57;6.93;;;11.10;71.90;;;;;;5056107;28;20458;-76
2021/10/09 03:15:27;;;;;;;6.47;5.97;;;11.00;72.10;;;;;;5054494;28;20450;-76
2021/10/09 03:17:54;;;;;;;8.30;6.90;;;11.00;72.10;;;;;;5055513;28;20445;-76
2021/10/09 03:20:22;;;;;;;10.20;7.30;;;11.00;72.20;;;;;;5055057;28;20445;-76
2021/10/09 03:22:49;;;;;;;9.13;7.50;;;11.00;72.10;;;;;;5054811;28;20496;-76
2021/10/09 03:25:16;;;;;;;9.40;8.43;;;10.90;72.10;;;;;;5055179;28;20437;-76
2021/10/09 03:27:43;;;;;;;8.33;7.60;;;10.90;72.00;;;;;;5055213;28;20441;-77
2021/10/09 03:30:11;;;;;;;10.27;9.30;;;10.80;71.90;;;;;;5055108;28;20455;-76
2021/10/09 03:32:38;;;;;;;8.90;8.00;;;10.80;72.00;;;;;;5055180;28;20461;-76
2021/10/09 03:35:06;;;;;;;9.60;8.70;;;10.80;72.60;;;;;;5055313;28;20450;-76
2021/10/09 03:37:35;;;;;;;8.97;8.07;;;10.80;72.30;;;;;;5055137;28;20442;-77
2021/10/09 03:40:03;;;;;;;11.60;10.40;;;10.80;72.10;;;;;;5054708;28;20450;-76
2021/10/09 03:42:35;;;;;;;10.97;9.97;;;10.70;71.90;;;;;;5054606;28;21090;-76
2021/10/09 03:45:07;;;;;;;12.60;11.20;;;10.70;72.40;;;;;;5055061;28;20534;-77
2021/10/09 03:47:48;;;;;;;14.87;10.80;;;10.60;73.00;;;;;;5056116;28;20434;-77
2021/10/09 03:50:21;;;;;;;11.50;10.30;;;10.60;73.10;;;;;;5061662;28;20430;-77
2021/10/09 03:52:49;;;;;;;10.63;9.60;;;10.60;73.50;;;;;;5056077;28;20976;-77
2021/10/09 03:55:18;;;;;;;17.60;9.40;;;10.60;73.70;;;;;;5055672;28;20460;-77
2021/10/09 03:57:45;;;;;;;13.90;9.97;;;10.60;74.10;;;;;;5055960;28;20940;-76
2021/10/09 04:00:14;;;;;;;10.70;9.67;;;10.60;74.20;;;;;;5057304;28;20442;-76
2021/10/09 04:02:41;;;;;;;10.93;9.83;;;10.60;74.30;;;;;;5056843;28;20493;-77
2021/10/09 04:05:08;;;;;;;10.17;8.80;;;10.50;74.30;;;;;;5055931;28;20449;-77
2021/10/09 04:07:35;;;;;;;9.73;8.83;;;10.50;74.30;;;;;;5056006;28;20433;-77
2021/10/09 04:10:04;;;;;;;11.90;10.70;;;10.60;74.30;;;;;;5055876;28;20457;-77
2021/10/09 04:12:30;;;;;;;10.40;9.50;;;10.60;74.30;;;;;;5055591;28;20468;-77
2021/10/09 04:14:57;;;;;;;11.00;9.60;;;10.60;74.20;;;;;;5055472;28;20453;-77
2021/10/09 04:17:24;;;;;;;12.57;10.37;;;10.60;74.20;;;;;;5055590;28;20445;-77
2021/10/09 04:19:50;;;;;;;15.03;11.40;;;10.60;74.50;;;;;;5055483;28;20441;-77
2021/10/09 04:22:17;;;;;;;12.10;10.90;;;10.60;74.80;;;;;;5055065;28;20493;-77
2021/10/09 04:24:44;;;;;;;16.43;11.70;;;10.60;74.80;;;;;;5055325;28;20452;-77
2021/10/09 04:27:12;;;;;;;19.40;12.53;;;10.60;74.90;;;;;;5055289;28;20460;-77
2021/10/09 04:29:39;;;;;;;14.70;11.87;;;10.50;75.00;;;;;;5055094;28;20442;-77
2021/10/09 04:32:06;;;;;;;14.23;11.57;;;10.50;75.00;;;;;;5055339;28;20465;-77
2021/10/09 04:34:33;;;;;;;17.20;11.33;;;10.50;75.00;;;;;;5055396;28;20446;-77
2021/10/09 04:36:59;;;;;;;10.90;9.80;;;10.40;74.80;;;;;;5055193;28;20450;-77
2021/10/09 04:39:26;;;;;;;10.70;9.60;;;10.40;74.80;;;;;;5054959;28;20895;-77
2021/10/09 04:41:53;;;;;;;11.73;10.03;;;10.40;74.90;;;;;;5054947;28;20820;-77
2021/10/09 04:44:22;;;;;;;18.70;11.40;;;10.30;75.00;;;;;;5055197;28;20457;-77
2021/10/09 04:46:49;;;;;;;12.50;11.20;;;10.40;75.20;;;;;;5054674;28;20488;-77
2021/10/09 04:49:16;;;;;;;15.23;10.93;;;10.30;75.40;;;;;;5055005;28;20787;-77
2021/10/09 04:51:42;;;;;;;13.23;11.50;;;10.30;75.60;;;;;;5054597;28;20449;-77
2021/10/09 04:54:09;;;;;;;12.00;10.77;;;10.30;75.60;;;;;;5054852;28;20449;-77
2021/10/09 04:56:36;;;;;;;13.03;11.73;;;10.30;75.60;;;;;;5054533;28;20445;-77
2021/10/09 04:59:03;;;;;;;13.40;11.43;;;10.30;75.80;;;;;;5055393;28;20544;-77
2021/10/09 05:01:31;;;;;;;14.40;11.60;;;10.30;76.00;;;;;;5055040;28;20445;-77
2021/10/09 05:03:58;;;;;;;24.20;11.90;;;10.30;76.10;;;;;;5054697;28;20840;-77
2021/10/09 05:06:24;;;;;;;13.23;11.63;;;10.30;76.50;;;;;;5054662;28;20438;-77
2021/10/09 05:08:51;;;;;;;21.43;11.50;;;10.30;76.50;;;;;;5055292;28;20448;-77
2021/10/09 05:11:18;;;;;;;11.70;10.63;;;10.30;76.40;;;;;;5054499;28;21019;-77
2021/10/09 05:13:45;;;;;;;13.67;11.23;;;10.30;76.30;;;;;;5054206;28;20469;-77
2021/10/09 05:16:12;;;;;;;12.00;10.90;;;10.20;75.90;;;;;;5054376;28;20445;-77
2021/10/09 05:18:40;;;;;;;12.00;10.90;;;10.20;75.70;;;;;;5054230;28;20448;-77
2021/10/09 05:21:07;;;;;;;12.53;11.27;;;10.20;75.70;;;;;;5054481;28;20453;-77
2021/10/09 05:23:34;;;;;;;11.33;10.23;;;10.10;75.30;;;;;;5053778;28;20508;-77
2021/10/09 05:26:01;;;;;;;11.17;10.23;;;10.10;75.40;;;;;;5054331;28;20450;-76
2021/10/09 05:28:35;;;;;;;10.90;9.90;;;10.10;75.60;;;;;;5054625;28;20438;-77
2021/10/09 05:31:02;;;;;;;10.77;9.70;;;10.10;75.90;;;;;;5054847;28;20445;-77
2021/10/09 05:33:37;;;;;;;10.77;9.77;;;10.10;76.00;;;;;;5054344;28;20461;-77
2021/10/09 05:36:06;;;;;;;11.60;10.40;;;10.00;75.80;;;;;;5055015;28;20437;-78
2021/10/09 05:38:33;;;;;;;11.67;10.53;;;10.00;76.20;;;;;;5055281;28;20456;-78
2021/10/09 05:41:00;;;;;;;11.50;10.20;;;10.10;76.70;;;;;;5058857;28;20449;-78
2021/10/09 05:43:28;;;;;;;12.57;11.27;;;10.10;77.00;;;;;;5058720;28;20484;-78
2021/10/09 05:45:55;;;;;;;12.57;11.27;;;10.10;77.40;;;;;;5058644;28;20438;-77
2021/10/09 05:48:22;;;;;;;11.13;9.97;;;10.10;77.50;;;;;;5058464;28;20445;-77
2021/10/09 05:50:54;;;;;;;11.40;10.30;;;10.10;77.50;;;;;;5058725;28;20859;-78
2021/10/09 05:56:08;;;;;;;12.30;9.47;;;10.10;77.20;;;;;;5049795;28;20797;-77
2021/10/09 05:58:44;;;;;;;13.77;10.17;;;10.10;76.90;;;;;;5058390;28;20429;-77
2021/10/09 06:45:25;;;;;;;19.70;12.20;;;10.10;79.10;;;;;;5036547;28;20795;-78
2021/10/09 06:47:53;;;;;;;15.43;11.20;;;10.20;79.50;;;;;;5057003;28;20429;-76
2021/10/09 07:01:34;;;;;;;15.40;12.67;;;10.40;81.70;;;;;;5056208;28;20926;-77
2021/10/09 07:04:00;;;;;;;28.00;13.73;;;10.50;82.10;;;;;;5054869;28;20856;-77
2021/10/09 07:06:27;;;;;;;21.07;13.27;;;10.50;82.20;;;;;;5055334;28;20445;-77
2021/10/09 07:08:54;;;;;;;13.20;11.87;;;10.60;82.50;;;;;;5055280;28;20433;-77
2021/10/09 07:11:20;;;;;;;15.07;10.50;;;10.60;82.60;;;;;;5055182;28;20450;-77
2021/10/09 07:13:48;;;;;;;12.63;11.10;;;10.70;82.70;;;;;;5055197;28;20461;-76
2021/10/09 07:16:15;;;;;;;12.03;10.93;;;10.70;82.60;;;;;;5054792;28;20931;-77
2021/10/09 07:18:42;;;;;;;11.13;10.13;;;10.70;82.60;;;;;;5055092;28;20450;-77
2021/10/09 07:21:09;;;;;;;12.03;10.87;;;10.80;82.60;;;;;;5055104;28;20449;-77
2021/10/09 07:23:35;;;;;;;13.90;11.27;;;10.90;82.50;;;;;;5054642;28;20492;-77
2021/10/09 07:26:02;;;;;;;13.40;10.30;;;10.90;82.40;;;;;;5055341;28;20947;-77
2021/10/09 07:28:29;;;;;;;12.00;10.20;;;10.90;82.40;;;;;;5055298;28;20457;-77
2021/10/09 07:30:57;;;;;;;11.97;10.77;;;10.90;82.50;;;;;;5055430;28;20468;-76
2021/10/09 07:33:23;;;;;;;11.33;10.13;;;11.00;82.60;;;;;;5055988;28;20454;-77
2021/10/09 07:35:50;;;;;;;12.10;10.73;;;11.00;82.80;;;;;;5055454;28;20464;-77
2021/10/09 07:38:17;;;;;;;21.63;10.60;;;11.10;83.10;;;;;;5055171;28;20456;-77
2021/10/09 07:40:44;;;;;;;11.60;10.50;;;11.10;83.50;;;;;;5055163;28;20448;-77
2021/10/09 07:43:12;;;;;;;12.40;11.17;;;11.10;83.70;;;;;;5054804;28;20991;-77
2021/10/09 07:45:39;;;;;;;15.30;11.97;;;11.20;84.10;;;;;;5055400;28;20433;-77
2021/10/09 07:48:07;;;;;;;15.43;13.93;;;11.30;84.30;;;;;;5055063;28;20437;-77
2021/10/09 07:50:34;;;;;;;14.00;12.03;;;11.30;84.60;;;;;;5055301;28;20458;-77
2021/10/09 07:53:02;;;;;;;18.03;15.77;;;11.40;85.00;;;;;;5055137;28;20475;-77
2021/10/09 07:55:29;;;;;;;17.40;15.67;;;11.40;85.30;;;;;;5054641;28;20853;-77
2021/10/09 07:57:55;;;;;;;17.77;14.57;;;11.50;85.60;;;;;;5054898;28;20441;-77
2021/10/09 08:00:22;;;;;;;17.03;15.20;;;11.60;85.90;;;;;;5054428;28;20958;-77
2021/10/09 08:02:49;;;;;;;18.50;16.50;;;11.60;85.90;;;;;;5054099;28;20485;-76
2021/10/09 08:05:18;;;;;;;19.50;17.50;;;11.80;86.20;;;;;;5054836;28;20520;-77
2021/10/09 08:07:44;;;;;;;25.03;20.33;;;11.90;86.40;;;;;;5055243;28;20433;-77
2021/10/09 08:10:12;;;;;;;22.47;18.60;;;11.90;86.10;;;;;;5054792;28;20452;-77
2021/10/09 08:12:39;;;;;;;22.97;19.50;;;12.00;85.80;;;;;;5054551;28;20480;-77
2021/10/09 08:15:07;;;;;;;22.67;19.87;;;12.10;85.80;;;;;;5054220;28;20508;-77
2021/10/09 08:17:34;;;;;;;22.57;19.17;;;12.20;85.40;;;;;;5054282;28;20445;-77
2021/10/09 08:20:00;;;;;;;18.30;16.27;;;12.30;85.10;;;;;;5054034;28;20816;-77
2021/10/09 08:22:30;;;;;;;20.23;17.60;;;12.40;84.60;;;;;;5053994;28;20485;-76
2021/10/09 08:25:08;;;;;;;26.50;20.83;;;12.50;83.80;;;;;;5054133;28;20481;-76
2021/10/09 08:36:13;;;;;;;25.20;18.87;;;12.80;81.50;;;;;;5052828;28;20444;-76
2021/10/09 08:38:51;;;;;;;24.27;19.57;;;13.00;81.30;;;;;;5054484;28;20462;-77
2021/10/09 08:41:19;;;;;;;25.10;19.47;;;13.10;80.90;;;;;;5054580;28;20528;-77
2021/10/09 08:43:48;;;;;;;22.23;19.43;;;13.20;80.90;;;;;;5053970;28;20854;-77
2021/10/09 08:46:15;;;;;;;23.53;20.13;;;13.30;81.10;;;;;;5054949;28;20519;-77
2021/10/09 08:48:43;;;;;;;25.70;21.20;;;13.30;80.60;;;;;;5054933;28;20503;-77
2021/10/09 08:51:10;;;;;;;25.63;20.37;;;13.40;80.20;;;;;;5054778;28;20441;-77
2021/10/09 08:53:38;;;;;;;25.63;22.50;;;13.50;80.30;;;;;;5054933;28;20462;-77
2021/10/09 08:56:07;;;;;;;31.87;23.57;;;13.60;80.10;;;;;;5054015;28;20445;-76
2021/10/09 08:58:37;;;;;;;31.77;22.43;;;13.70;80.40;;;;;;5053475;28;20449;-77
2021/10/09 09:01:09;;;;;;;28.03;23.27;;;13.80;80.30;;;;;;5053606;28;20856;-77
2021/10/09 09:04:10;;;;;;;30.80;23.10;;;13.90;80.50;;;;;;5053319;28;20821;-77
2021/10/09 09:07:03;;;;;;;29.90;23.73;;;14.00;80.90;;;;;;5053115;28;20925;-77
2021/10/09 09:26:18;;;;;;;26.10;21.20;;;14.70;78.90;;;;;;5056504;28;20437;-77
2021/10/09 09:31:43;;;;;;;26.07;22.60;;;15.00;79.20;;;;;;5056292;28;20460;-77
2021/10/09 09:34:19;;;;;;;26.57;21.97;;;15.10;78.30;;;;;;5055964;28;20476;-77
2021/10/09 09:39:43;;;;;;;26.20;21.13;;;15.40;76.40;;;;;;5045007;28;20919;-77
2021/10/09 09:42:11;;;;;;;26.60;21.93;;;15.60;75.20;;;;;;5056413;28;20469;-77
2021/10/09 09:44:53;;;;;;;24.30;21.00;;;15.70;76.10;;;;;;5056008;28;20481;-77
2021/10/09 09:47:20;;;;;;;25.37;19.70;;;16.00;76.00;;;;;;5055909;28;20421;-77
2021/10/09 09:49:47;;;;;;;22.67;18.47;;;16.20;75.40;;;;;;5055916;28;20445;-78
2021/10/09 09:52:14;;;;;;;24.10;20.10;;;16.50;74.90;;;;;;5057932;28;20476;-77
2021/10/09 09:54:43;;;;;;;21.40;19.00;;;16.70;73.20;;;;;;5057445;28;20425;-78
2021/10/09 09:57:10;;;;;;;21.53;18.70;;;17.10;71.70;;;;;;5057075;28;20449;-77
2021/10/09 09:59:38;;;;;;;27.40;20.00;;;17.40;68.80;;;;;;5055753;28;20849;-78
2021/10/09 10:02:06;;;;;;;24.50;17.70;;;17.80;66.70;;;;;;5056369;28;20576;-77
2021/10/09 10:04:35;;;;;;;21.57;17.70;;;18.30;66.30;;;;;;5056056;28;20484;-78
2021/10/09 10:07:03;;;;;;;19.97;17.97;;;18.80;63.40;;;;;;5055963;28;20450;-77
2021/10/09 10:09:33;;;;;;;24.60;18.77;;;19.30;60.90;;;;;;5056770;28;20433;-77
2021/10/09 10:12:01;;;;;;;24.17;18.70;;;19.80;59.50;;;;;;5056114;28;20469;-78
2021/10/09 10:14:29;;;;;;;19.53;17.43;;;20.30;58.10;;;;;;5056402;28;20433;-77
2021/10/09 10:16:58;;;;;;;20.40;16.80;;;20.80;56.50;;;;;;5056352;28;20837;-78
2021/10/09 10:20:00;;;;;;;22.77;17.40;;;21.30;55.30;;;;;;5056349;28;20476;-78
2021/10/09 10:23:05;;;;;;;22.57;18.70;;;21.90;53.70;;;;;;5019740;28;1059148;-77
2021/10/09 10:25:41;;;;;;;20.70;17.37;;;22.50;52.30;;;;;;5041324;28;20596;-77
2021/10/09 10:28:09;;;;;;;18.70;16.80;;;23.10;50.60;;;;;;5057274;28;20433;-78
2021/10/09 10:30:38;;;;;;;18.37;16.47;;;23.60;49.40;;;;;;5057526;28;20438;-77
2021/10/09 10:33:30;;;;;;;21.67;16.77;;;24.10;47.90;;;;;;5057061;28;20841;-76
2021/10/09 10:35:57;;;;;;;19.00;16.87;;;24.70;46.30;;;;;;5054755;28;20450;-77
2021/10/09 10:38:45;;;;;;;20.40;18.30;;;25.10;43.60;;;;;;5057499;28;20930;-78
2021/10/09 10:41:16;;;;;;;22.20;16.67;;;25.60;40.90;;;;;;5056978;28;20426;-76
2021/10/09 10:43:45;;;;;;;16.60;14.80;;;25.90;41.80;;;;;;5055754;28;20492;-78
2021/10/09 10:46:48;;;;;;;17.17;15.50;;;26.30;41.80;;;;;;5055828;28;20454;-76
2021/10/09 10:49:21;;;;;;;17.60;15.30;;;26.80;40.90;;;;;;5013689;28;20455;-76
2021/10/09 10:52:09;;;;;;;19.17;15.77;;;27.20;39.60;;;;;;5048555;28;20579;-76
2021/10/09 10:54:37;;;;;;;17.00;15.20;;;27.60;38.90;;;;;;5055570;28;20422;-76
2021/10/09 10:57:23;;;;;;;19.57;16.33;;;28.00;38.40;;;;;;5055480;28;20437;-76
2021/10/09 11:00:11;;;;;;;16.97;15.37;;;28.40;37.10;;;;;;5055440;28;20838;-76
2021/10/09 11:02:45;;;;;;;17.63;15.70;;;28.70;35.30;;;;;;5055097;28;20979;-76
2021/10/09 11:05:14;;;;;;;15.40;13.80;;;29.10;35.00;;;;;;5055991;28;20468;-76
2021/10/09 11:07:42;;;;;;;17.07;15.27;;;29.40;34.90;;;;;;5055333;28;20438;-77
2021/10/09 11:10:11;;;;;;;15.90;14.47;;;29.70;34.30;;;;;;5055341;28;20442;-76
2021/10/09 11:12:39;;;;;;;15.17;13.90;;;30.00;33.50;;;;;;5055102;28;20496;-77
2021/10/09 11:15:22;;;;;;;16.83;14.37;;;30.30;33.40;;;;;;5055229;28;20935;-76
2021/10/09 11:17:56;;;;;;;19.90;17.73;;;30.50;32.50;;;;;;5056604;28;20425;-77
2021/10/09 11:20:27;;;;;;;15.40;13.87;;;30.70;29.40;;;;;;5056727;28;20433;-78
2021/10/09 11:22:55;;;;;;;16.17;14.03;;;30.70;29.90;;;;;;5056919;28;20481;-78
2021/10/09 11:25:28;;;;;;;16.83;14.00;;;31.00;31.20;;;;;;5056495;28;20477;-78
2021/10/09 11:27:55;;;;;;;15.57;14.00;;;31.20;31.10;;;;;;5056509;28;20899;-77
2021/10/09 11:30:23;;;;;;;15.73;14.27;;;31.50;30.30;;;;;;5056287;28;20441;-76
2021/10/09 11:32:49;;;;;;;14.83;13.33;;;31.80;29.80;;;;;;5054772;28;20473;-76
2021/10/09 11:35:31;;;;;;;15.80;14.10;;;32.10;28.20;;;;;;5055049;28;20444;-76
2021/10/09 11:37:58;;;;;;;15.80;14.43;;;32.40;29.00;;;;;;5054675;28;20456;-76
2021/10/09 11:40:30;;;;;;;14.07;12.63;;;32.60;28.80;;;;;;5054692;28;20445;-76
2021/10/09 11:43:00;;;;;;;16.67;15.03;;;32.90;28.60;;;;;;5056082;28;20465;-78
2021/10/09 11:45:33;;;;;;;13.83;12.53;;;33.20;27.50;;;;;;5057765;28;20486;-78
2021/10/09 11:53:50;;;;;;;15.27;13.77;;;34.10;26.50;;;;;;5057546;28;20957;-78
2021/10/09 11:56:17;;;;;;;14.90;13.27;;;34.40;26.00;;;;;;5057881;28;20785;-78
2021/10/09 11:58:54;;;;;;;13.30;12.20;;;34.60;26.20;;;;;;5057870;28;20444;-77
2021/10/09 12:01:33;;;;;;;14.23;12.83;;;34.90;26.30;;;;;;5055247;28;20429;-78
2021/10/09 12:04:19;;;;;;;13.53;12.33;;;35.30;26.00;;;;;;5056134;28;20555;-78
2021/10/09 12:06:49;;;;;;;14.43;13.10;;;35.60;25.60;;;;;;5057748;28;20190;-78
2021/10/09 12:09:18;;;;;;;14.10;12.60;;;35.80;25.30;;;;;;5057555;28;20934;-78
2021/10/09 12:11:45;;;;;;;15.40;14.10;;;36.10;25.10;;;;;;5057798;28;20209;-78
2021/10/09 12:14:13;;;;;;;14.90;13.33;;;36.40;24.30;;;;;;5057608;28;20206;-77
2021/10/09 12:16:42;;;;;;;13.65;12.38;;;36.40;23.10;;;;;;5057810;28;20202;-78
2021/10/09 12:19:10;;;;;;;15.17;13.70;;;36.60;24.00;;;;;;5058041;28;20281;-78
2021/10/09 12:21:39;;;;;;;12.63;11.40;;;36.80;23.80;;;;;;5057344;28;20198;-78
2021/10/09 12:24:15;;;;;;;13.75;12.40;;;37.00;23.50;;;;;;5056991;28;20546;-78
2021/10/09 12:26:42;;;;;;;15.30;12.77;;;37.20;23.50;;;;;;5057209;28;20206;-78
2021/10/09 12:29:17;;;;;;;12.90;11.87;;;37.30;23.00;;;;;;5057359;28;20202;-78
2021/10/09 12:31:45;;;;;;;15.95;12.05;;;37.40;22.80;;;;;;5056688;28;20235;-77
2021/10/09 12:34:32;;;;;;;12.07;10.98;;;37.50;22.00;;;;;;5055697;28;20695;-77
2021/10/09 12:37:23;;;;;;;13.38;12.23;;;37.70;22.20;;;;;;5055247;28;20233;-77
2021/10/09 12:40:08;;;;;;;11.02;10.13;;;37.80;20.70;;;;;;5054716;28;20186;-77
2021/10/09 12:42:35;;;;;;;10.90;9.38;;;37.80;21.20;;;;;;5053727;28;20226;-76
2021/10/09 12:45:03;;;;;;;15.10;10.25;;;37.90;21.60;;;;;;5054743;28;20241;-76
2021/10/09 12:47:29;;;;;;;13.02;11.88;;;38.20;21.70;;;;;;5053795;28;20202;-77
2021/10/09 12:49:56;;;;;;;11.57;10.35;;;38.10;19.80;;;;;;5053644;28;20202;-77
2021/10/09 12:52:23;;;;;;;11.18;10.27;;;38.20;20.80;;;;;;5053450;28;20219;-77
2021/10/09 12:54:51;;;;;;;10.40;8.98;;;38.30;21.20;;;;;;5053415;28;20205;-78
2021/10/09 12:57:18;;;;;;;11.30;8.98;;;38.50;20.70;;;;;;5053512;28;20210;-77
2021/10/09 12:59:44;;;;;;;10.52;9.63;;;38.60;20.70;;;;;;5053868;28;20257;-78
2021/10/09 13:02:12;;;;;;;9.60;8.60;;;38.70;20.90;;;;;;5053339;28;20284;-77
2021/10/09 13:04:39;;;;;;;14.80;9.48;;;38.80;20.40;;;;;;5054081;28;20218;-77
2021/10/09 13:07:07;;;;;;;10.93;9.93;;;38.90;20.50;;;;;;5054995;28;20198;-76
2021/10/09 13:09:33;;;;;;;9.57;8.68;;;39.00;20.40;;;;;;5054234;28;20198;-76
2021/10/09 13:12:02;;;;;;;9.98;8.77;;;39.20;20.20;;;;;;5054545;28;20242;-78
2021/10/09 13:14:29;;;;;;;9.80;8.90;;;39.20;18.90;;;;;;5053617;28;20199;-77
2021/10/09 13:16:56;;;;;;;10.15;9.15;;;39.10;19.50;;;;;;5053702;28;20206;-76
2021/10/09 13:19:22;;;;;;;9.60;8.70;;;39.10;19.00;;;;;;5053772;28;20573;-76
2021/10/09 13:21:49;;;;;;;9.88;8.90;;;39.20;20.10;;;;;;5052987;28;20711;-76
2021/10/09 13:24:16;;;;;;;10.23;9.43;;;39.30;20.10;;;;;;5053559;28;20238;-77
2021/10/09 13:26:42;;;;;;;10.05;9.13;;;39.40;19.90;;;;;;5053706;28;20199;-77
2021/10/09 13:29:11;;;;;;;12.88;9.88;;;39.50;19.90;;;;;;5053345;28;20209;-76
2021/10/09 13:31:37;;;;;;;10.40;9.50;;;39.60;19.20;;;;;;5052905;28;20605;-77
2021/10/09 13:34:04;;;;;;;9.57;8.88;;;39.60;19.40;;;;;;5053547;28;20230;-78
2021/10/09 13:36:31;;;;;;;9.95;9.25;;;39.60;19.50;;;;;;5056600;28;20203;-78
2021/10/09 13:38:58;;;;;;;9.63;8.80;;;39.70;19.70;;;;;;5056746;28;20203;-78
2021/10/09 13:41:25;;;;;;;10.20;8.50;;;39.70;19.50;;;;;;5054805;28;20202;-77
2021/10/09 13:43:52;;;;;;;9.65;8.68;;;39.80;19.60;;;;;;5053556;28;20234;-78
2021/10/09 13:46:20;;;;;;;9.18;8.48;;;39.80;19.40;;;;;;5056082;28;20222;-78
2021/10/09 13:48:48;;;;;;;9.88;8.88;;;40.00;19.50;;;;;;5056142;28;20284;-78
2021/10/09 13:51:15;;;;;;;10.52;9.63;;;40.00;19.00;;;;;;5054778;28;20226;-77
2021/10/09 13:53:42;;;;;;;10.40;9.60;;;40.10;19.00;;;;;;5053455;28;20226;-76
2021/10/09 13:56:09;;;;;;;10.82;9.93;;;40.00;19.20;;;;;;5053587;28;20198;-77
2021/10/09 13:58:36;;;;;;;9.82;8.82;;;40.00;19.30;;;;;;5053439;28;20206;-77
2021/10/09 14:01:03;;;;;;;9.80;8.82;;;40.10;19.40;;;;;;5055456;28;20203;-77
2021/10/09 14:03:33;;;;;;;12.75;9.73;;;40.00;19.30;;;;;;5056683;28;20226;-76
2021/10/09 14:06:00;;;;;;;10.23;9.30;;;39.90;19.50;;;;;;5056615;28;20272;-76
2021/10/09 14:08:28;;;;;;;10.65;9.55;;;39.90;19.50;;;;;;5058534;28;20232;-77
2021/10/09 14:10:56;;;;;;;10.52;9.63;;;39.90;19.60;;;;;;5056938;28;20199;-76
2021/10/09 14:13:24;;;;;;;9.75;8.75;;;39.70;19.50;;;;;;5056222;28;20737;-76
2021/10/09 14:15:51;;;;;;;10.85;9.77;;;39.60;19.60;;;;;;5056115;28;20695;-76
2021/10/09 14:18:19;;;;;;;10.60;9.55;;;39.50;19.60;;;;;;5056247;28;20202;-76
2021/10/09 14:20:48;;;;;;;9.95;8.90;;;39.40;19.80;;;;;;5056003;28;20206;-76
2021/10/09 14:23:15;;;;;;;12.85;8.98;;;39.30;20.00;;;;;;5057240;28;20613;-78